createdAt,value
2024-03-05T00:03:41.660Z,9.80
2024-03-05T00:13:44.308Z,9.80
2024-03-05T00:23:46.325Z,9.80
2024-03-05T00:33:48.790Z,9.80
2024-03-05T00:43:50.814Z,9.80
2024-03-05T00:53:52.898Z,9.80
2024-03-05T01:03:56.610Z,9.80
2024-03-05T01:14:00.140Z,9.90
2024-03-05T01:24:02.653Z,9.80
2024-03-05T01:34:04.704Z,9.70
2024-03-05T01:44:06.683Z,9.70
2024-03-05T01:54:08.733Z,9.60
2024-03-05T02:04:11.924Z,9.60
2024-03-05T02:14:14.681Z,9.60
2024-03-05T02:24:16.712Z,9.70
2024-03-05T02:34:19.762Z,9.60
2024-03-05T02:44:21.826Z,9.60
2024-03-05T02:54:23.788Z,9.70
2024-03-05T03:04:27.349Z,9.70
2024-03-05T03:14:29.585Z,9.70
2024-03-05T03:24:31.558Z,9.80
2024-03-05T03:34:34.020Z,9.80
2024-03-05T03:44:36.513Z,9.80
2024-03-05T03:54:38.831Z,9.90
2024-03-05T04:04:40.905Z,9.80
2024-03-05T04:14:43.028Z,9.80
2024-03-05T04:24:53.485Z,9.90
2024-03-05T04:35:07.692Z,9.80
2024-03-05T04:45:10.399Z,9.80
2024-03-05T04:55:14.649Z,9.80
2024-03-05T05:05:17.131Z,9.80
2024-03-05T05:15:19.550Z,9.70
2024-03-05T05:25:22.859Z,9.70
2024-03-05T05:35:24.887Z,9.80
2024-03-05T05:45:26.860Z,9.80
2024-03-05T05:55:29.670Z,9.80
2024-03-05T06:05:37.494Z,9.80
2024-03-05T06:15:40.212Z,9.80
2024-03-05T06:25:42.268Z,9.80
2024-03-05T06:35:44.400Z,9.80
2024-03-05T06:45:47.935Z,9.80
2024-03-05T06:56:09.044Z,9.80
2024-03-05T07:06:13.486Z,9.90
2024-03-05T07:16:17.729Z,9.90
2024-03-05T07:26:20.713Z,9.90
2024-03-05T07:36:23.029Z,9.90
2024-03-05T07:46:25.999Z,9.90
2024-03-05T07:56:29.004Z,10.00
2024-03-05T08:06:31.957Z,10.00
2024-03-05T08:16:35.422Z,10.10
2024-03-05T08:26:37.894Z,10.10
2024-03-05T08:36:40.683Z,10.10
2024-03-05T08:46:42.999Z,10.20
2024-03-05T08:56:45.063Z,10.20
2024-03-05T09:06:47.211Z,10.30
2024-03-05T09:16:49.300Z,10.20
2024-03-05T09:26:51.329Z,10.30
2024-03-05T09:36:53.363Z,10.30
2024-03-05T09:46:55.506Z,10.30
2024-03-05T09:56:59.163Z,10.30
2024-03-05T10:07:01.181Z,10.20
2024-03-05T10:17:03.683Z,10.00
2024-03-05T10:27:05.907Z,9.90
2024-03-05T10:37:08.086Z,9.90
2024-03-05T10:47:10.735Z,9.90
2024-03-05T10:57:12.807Z,9.80
2024-03-05T11:07:17.074Z,9.80
2024-03-05T11:17:22.749Z,9.80
2024-03-05T11:27:25.822Z,9.80
2024-03-05T11:37:27.808Z,10.00
2024-03-05T11:47:29.809Z,10.20
2024-03-05T11:57:31.935Z,10.50
2024-03-05T12:07:34.276Z,10.60
2024-03-05T12:17:37.119Z,10.70
2024-03-05T12:27:39.566Z,10.70
2024-03-05T12:37:42.220Z,10.70
2024-03-05T12:47:55.722Z,10.60
2024-03-05T12:58:09.780Z,10.60
2024-03-05T13:08:13.739Z,10.60
2024-03-05T13:18:15.819Z,10.70
2024-03-05T13:28:17.835Z,10.70
2024-03-05T13:38:19.867Z,10.70
2024-03-05T13:48:21.862Z,10.70
2024-03-05T13:58:24.041Z,10.70
2024-03-05T14:08:29.824Z,10.60
2024-03-05T14:18:31.806Z,10.60
2024-03-05T14:28:34.138Z,10.70
2024-03-05T14:38:38.439Z,10.70
2024-03-05T14:48:42.150Z,10.70
2024-03-05T14:58:44.585Z,10.80
2024-03-05T15:08:46.605Z,10.90
2024-03-05T15:18:48.591Z,10.90
2024-03-05T15:28:51.701Z,10.80
2024-03-05T15:38:54.349Z,10.70
2024-03-05T15:48:56.321Z,10.70
2024-03-05T15:59:16.890Z,10.70
2024-03-05T16:09:20.500Z,10.60
2024-03-05T16:19:22.648Z,10.60
2024-03-05T16:29:24.656Z,10.60
2024-03-05T16:39:26.701Z,10.60
2024-03-05T16:49:28.810Z,10.70
2024-03-05T16:59:30.824Z,10.70
2024-03-05T17:09:32.793Z,10.60
2024-03-05T17:19:34.927Z,10.50
2024-03-05T17:29:37.002Z,10.30
2024-03-05T17:39:38.977Z,10.10
2024-03-05T17:49:41.092Z,10.00
2024-03-05T17:59:43.313Z,9.90
2024-03-05T18:09:45.489Z,9.80
2024-03-05T18:19:48.904Z,9.80
2024-03-05T18:29:56.750Z,9.70
2024-03-05T18:39:58.756Z,9.70
2024-03-05T18:50:00.926Z,9.70
2024-03-05T19:00:04.047Z,9.80
2024-03-05T19:10:07.823Z,9.80
2024-03-05T19:20:12.250Z,9.80
2024-03-05T19:30:18.428Z,9.70
2024-03-05T19:40:22.205Z,9.70
2024-03-05T19:50:25.009Z,9.70
2024-03-05T20:00:28.177Z,9.60
2024-03-05T20:10:31.161Z,9.60
2024-03-05T20:20:33.429Z,9.50
2024-03-05T20:30:35.667Z,9.50
2024-03-05T20:40:37.737Z,9.40
2024-03-05T20:50:39.747Z,9.40
2024-03-05T21:00:44.029Z,9.50
2024-03-05T21:10:46.877Z,9.50
2024-03-05T21:20:48.975Z,9.50
2024-03-05T21:30:50.960Z,9.60
2024-03-05T21:40:52.978Z,9.50
2024-03-05T21:51:06.184Z,9.60
2024-03-05T22:01:12.120Z,9.50
2024-03-05T22:11:15.229Z,9.50
2024-03-05T22:21:17.480Z,9.50
2024-03-05T22:31:19.455Z,9.40
2024-03-05T22:41:21.675Z,9.40
2024-03-05T22:51:25.546Z,9.40
2024-03-05T23:01:27.570Z,9.40
2024-03-05T23:11:29.759Z,9.40
2024-03-05T23:21:33.704Z,9.40
2024-03-05T23:31:35.734Z,9.40
2024-03-05T23:41:37.893Z,9.40
2024-03-05T23:51:45.539Z,9.40
